Elizabeth, Indiana
Current Conditions -  °F | °C
As of 7:56 PM on Wednesday 22 Oct 2014 (Local Time) from KSDF Reporting Station
Clear Clear  
Wind Chill: 55°   Ceiling: Unl
Heat Index: 55°   Visibility: 10mi
Dew Point: 41°   Wind: 12mph
Humidity: 59%   Direction: 100°E
Pressure: 30.24"   Gusts: NA
Location:  38.12°N, 85.97°W
Report Text: KSDF 222356Z 10010KT 10SM CLR 13/05 A3024 RMK AO2 SLP242 T01280050 10167 20128 53003
Loading
Personal Weather Stations






























Interactive Weather Map
Tropical Storm Tracking
New forecast layout! Learn more

10-Day Weather Forecast

Advertisements
Track Severe Weather on mobile